sensor_id;sensor_type;location;lat;lon;timestamp;temperature;humidity
47626;DHT22;33342;45.574;9.252;2023-08-12T00:00:21;27.30;1.00
47626;DHT22;33342;45.574;9.252;2023-08-12T00:02:48;27.30;1.00
47626;DHT22;33342;45.574;9.252;2023-08-12T00:05:15;27.30;1.00
47626;DHT22;33342;45.574;9.252;2023-08-12T00:07:42;27.20;1.00
47626;DHT22;33342;45.574;9.252;2023-08-12T00:10:12;27.20;1.00
47626;DHT22;33342;45.574;9.252;2023-08-12T00:12:39;27.20;1.00
47626;DHT22;33342;45.574;9.252;2023-08-12T00:15:06;27.20;1.00
47626;DHT22;33342;45.574;9.252;2023-08-12T00:17:35;27.20;1.00
47626;DHT22;33342;45.574;9.252;2023-08-12T00:20:08;27.20;1.00
47626;DHT22;33342;45.574;9.252;2023-08-12T00:22:38;27.20;1.00
47626;DHT22;33342;45.574;9.252;2023-08-12T00:25:05;27.20;1.00
47626;DHT22;33342;45.574;9.252;2023-08-12T00:27:32;27.10;1.00
47626;DHT22;33342;45.574;9.252;2023-08-12T00:30:00;27.10;1.00
47626;DHT22;33342;45.574;9.252;2023-08-12T00:32:28;27.10;1.00
47626;DHT22;33342;45.574;9.252;2023-08-12T00:34:56;27.10;1.00
47626;DHT22;33342;45.574;9.252;2023-08-12T00:37:23;27.10;1.00
47626;DHT22;33342;45.574;9.252;2023-08-12T00:39:51;27.00;1.00
47626;DHT22;33342;45.574;9.252;2023-08-12T00:42:18;27.00;1.00
47626;DHT22;33342;45.574;9.252;2023-08-12T00:44:45;27.00;1.00
47626;DHT22;33342;45.574;9.252;2023-08-12T00:47:13;27.00;1.00
47626;DHT22;33342;45.574;9.252;2023-08-12T00:49:40;26.90;1.00
47626;DHT22;33342;45.574;9.252;2023-08-12T00:52:11;26.90;1.00
47626;DHT22;33342;45.574;9.252;2023-08-12T00:54:39;26.90;1.00
47626;DHT22;33342;45.574;9.252;2023-08-12T00:57:06;26.90;1.00
47626;DHT22;33342;45.574;9.252;2023-08-12T00:59:35;26.90;1.00
47626;DHT22;33342;45.574;9.252;2023-08-12T01:02:02;26.90;1.00
47626;DHT22;33342;45.574;9.252;2023-08-12T01:04:29;26.90;1.00
47626;DHT22;33342;45.574;9.252;2023-08-12T01:06:57;26.80;1.00
47626;DHT22;33342;45.574;9.252;2023-08-12T01:09:24;26.80;1.00
47626;DHT22;33342;45.574;9.252;2023-08-12T01:11:55;26.80;1.00
47626;DHT22;33342;45.574;9.252;2023-08-12T01:14:28;26.80;1.00
47626;DHT22;33342;45.574;9.252;2023-08-12T01:17:00;26.80;1.00
47626;DHT22;33342;45.574;9.252;2023-08-12T01:19:34;26.80;1.00
47626;DHT22;33342;45.574;9.252;2023-08-12T01:22:02;26.80;1.00
47626;DHT22;33342;45.574;9.252;2023-08-12T01:27:04;26.80;1.00
47626;DHT22;33342;45.574;9.252;2023-08-12T01:29:35;26.70;1.00
47626;DHT22;33342;45.574;9.252;2023-08-12T01:34:56;26.70;1.00
47626;DHT22;33342;45.574;9.252;2023-08-12T01:37:26;26.60;1.00
47626;DHT22;33342;45.574;9.252;2023-08-12T01:39:54;26.60;1.00
47626;DHT22;33342;45.574;9.252;2023-08-12T01:42:22;26.60;1.00
47626;DHT22;33342;45.574;9.252;2023-08-12T01:44:49;26.60;1.00
47626;DHT22;33342;45.574;9.252;2023-08-12T01:47:16;26.60;1.00
47626;DHT22;33342;45.574;9.252;2023-08-12T01:49:43;26.60;1.00
47626;DHT22;33342;45.574;9.252;2023-08-12T01:52:10;26.50;1.00
47626;DHT22;33342;45.574;9.252;2023-08-12T01:54:37;26.50;1.00
47626;DHT22;33342;45.574;9.252;2023-08-12T01:57:06;26.50;1.00
47626;DHT22;33342;45.574;9.252;2023-08-12T01:59:35;26.50;1.00
47626;DHT22;33342;45.574;9.252;2023-08-12T02:02:02;26.50;1.00
47626;DHT22;33342;45.574;9.252;2023-08-12T02:04:29;26.40;1.00
47626;DHT22;33342;45.574;9.252;2023-08-12T02:06:57;26.40;1.00
47626;DHT22;33342;45.574;9.252;2023-08-12T02:09:23;26.50;1.00
47626;DHT22;33342;45.574;9.252;2023-08-12T02:11:50;26.40;1.00
47626;DHT22;33342;45.574;9.252;2023-08-12T02:14:17;26.40;1.00
47626;DHT22;33342;45.574;9.252;2023-08-12T02:16:44;26.40;1.00
47626;DHT22;33342;45.574;9.252;2023-08-12T02:19:11;26.40;1.00
47626;DHT22;33342;45.574;9.252;2023-08-12T02:21:39;26.40;1.00
47626;DHT22;33342;45.574;9.252;2023-08-12T02:24:07;26.30;1.00
47626;DHT22;33342;45.574;9.252;2023-08-12T02:26:37;26.30;1.00
47626;DHT22;33342;45.574;9.252;2023-08-12T02:29:04;26.30;1.00
47626;DHT22;33342;45.574;9.252;2023-08-12T02:31:31;26.30;1.00
47626;DHT22;33342;45.574;9.252;2023-08-12T02:33:58;26.20;1.00
47626;DHT22;33342;45.574;9.252;2023-08-12T02:36:25;26.20;1.00
47626;DHT22;33342;45.574;9.252;2023-08-12T02:38:55;26.20;1.00
47626;DHT22;33342;45.574;9.252;2023-08-12T02:41:22;26.20;1.00
47626;DHT22;33342;45.574;9.252;2023-08-12T02:43:50;26.20;1.00
47626;DHT22;33342;45.574;9.252;2023-08-12T02:46:17;26.10;1.00
47626;DHT22;33342;45.574;9.252;2023-08-12T02:48:45;26.10;1.00
47626;DHT22;33342;45.574;9.252;2023-08-12T02:51:12;26.20;1.00
47626;DHT22;33342;45.574;9.252;2023-08-12T02:53:39;26.10;1.00
47626;DHT22;33342;45.574;9.252;2023-08-12T02:56:06;26.10;1.00
47626;DHT22;33342;45.574;9.252;2023-08-12T02:58:33;26.10;1.00
47626;DHT22;33342;45.574;9.252;2023-08-12T03:01:01;26.10;1.00
47626;DHT22;33342;45.574;9.252;2023-08-12T03:03:30;26.10;1.00
47626;DHT22;33342;45.574;9.252;2023-08-12T03:05:58;26.10;1.00
47626;DHT22;33342;45.574;9.252;2023-08-12T03:08:26;26.10;1.00
47626;DHT22;33342;45.574;9.252;2023-08-12T03:10:57;26.10;1.00
47626;DHT22;33342;45.574;9.252;2023-08-12T03:13:25;26.10;1.00
47626;DHT22;33342;45.574;9.252;2023-08-12T03:15:52;26.00;1.00
47626;DHT22;33342;45.574;9.252;2023-08-12T03:18:19;26.00;1.00
47626;DHT22;33342;45.574;9.252;2023-08-12T03:20:46;26.00;1.00
47626;DHT22;33342;45.574;9.252;2023-08-12T03:23:14;26.00;1.00
47626;DHT22;33342;45.574;9.252;2023-08-12T03:25:42;26.00;1.00
47626;DHT22;33342;45.574;9.252;2023-08-12T03:28:09;26.00;1.00
47626;DHT22;33342;45.574;9.252;2023-08-12T03:30:37;26.00;1.00
47626;DHT22;33342;45.574;9.252;2023-08-12T03:33:05;26.00;1.00
47626;DHT22;33342;45.574;9.252;2023-08-12T03:35:33;25.90;1.00
47626;DHT22;33342;45.574;9.252;2023-08-12T03:38:00;25.90;1.00
47626;DHT22;33342;45.574;9.252;2023-08-12T03:40:28;25.90;1.00
47626;DHT22;33342;45.574;9.252;2023-08-12T03:42:56;25.90;1.00
47626;DHT22;33342;45.574;9.252;2023-08-12T03:45:24;25.90;1.00
47626;DHT22;33342;45.574;9.252;2023-08-12T03:47:51;25.90;1.00
47626;DHT22;33342;45.574;9.252;2023-08-12T03:50:18;25.90;1.00
47626;DHT22;33342;45.574;9.252;2023-08-12T03:52:45;25.90;1.00
47626;DHT22;33342;45.574;9.252;2023-08-12T03:55:13;25.90;1.00
47626;DHT22;33342;45.574;9.252;2023-08-12T03:57:41;25.80;1.00
47626;DHT22;33342;45.574;9.252;2023-08-12T04:00:08;25.80;1.00
47626;DHT22;33342;45.574;9.252;2023-08-12T04:02:40;25.80;1.00
47626;DHT22;33342;45.574;9.252;2023-08-12T04:05:07;25.80;1.00
47626;DHT22;33342;45.574;9.252;2023-08-12T04:07:37;25.80;1.00
47626;DHT22;33342;45.574;9.252;2023-08-12T04:10:04;25.80;1.00
47626;DHT22;33342;45.574;9.252;2023-08-12T04:12:31;25.80;1.00
47626;DHT22;33342;45.574;9.252;2023-08-12T04:14:58;25.80;1.00
47626;DHT22;33342;45.574;9.252;2023-08-12T04:17:27;25.80;1.00
47626;DHT22;33342;45.574;9.252;2023-08-12T04:19:54;25.80;1.00
47626;DHT22;33342;45.574;9.252;2023-08-12T04:22:21;25.80;1.00
47626;DHT22;33342;45.574;9.252;2023-08-12T04:24:48;25.80;1.00
47626;DHT22;33342;45.574;9.252;2023-08-12T04:27:15;25.70;1.00
47626;DHT22;33342;45.574;9.252;2023-08-12T04:29:46;25.80;1.00
47626;DHT22;33342;45.574;9.252;2023-08-12T04:32:13;25.80;1.00
47626;DHT22;33342;45.574;9.252;2023-08-12T04:34:40;25.80;1.00
47626;DHT22;33342;45.574;9.252;2023-08-12T04:37:08;25.80;1.00
47626;DHT22;33342;45.574;9.252;2023-08-12T04:39:36;25.70;1.00
47626;DHT22;33342;45.574;9.252;2023-08-12T04:42:03;25.80;1.00
47626;DHT22;33342;45.574;9.252;2023-08-12T04:44:30;25.70;1.00
47626;DHT22;33342;45.574;9.252;2023-08-12T04:46:57;25.80;1.00
47626;DHT22;33342;45.574;9.252;2023-08-12T04:49:24;25.70;1.00
47626;DHT22;33342;45.574;9.252;2023-08-12T04:51:52;25.70;1.00
47626;DHT22;33342;45.574;9.252;2023-08-12T04:54:20;25.80;1.00
47626;DHT22;33342;45.574;9.252;2023-08-12T04:56:48;25.70;1.00
47626;DHT22;33342;45.574;9.252;2023-08-12T04:59:15;25.70;1.00
47626;DHT22;33342;45.574;9.252;2023-08-12T05:01:42;25.70;1.00
47626;DHT22;33342;45.574;9.252;2023-08-12T05:04:28;25.80;1.00
47626;DHT22;33342;45.574;9.252;2023-08-12T05:06:56;25.70;1.00
47626;DHT22;33342;45.574;9.252;2023-08-12T05:09:25;25.70;1.00
47626;DHT22;33342;45.574;9.252;2023-08-12T05:11:52;25.80;1.00
47626;DHT22;33342;45.574;9.252;2023-08-12T05:14:19;25.70;1.00
47626;DHT22;33342;45.574;9.252;2023-08-12T05:16:46;25.80;1.00
47626;DHT22;33342;45.574;9.252;2023-08-12T05:19:13;25.80;1.00
47626;DHT22;33342;45.574;9.252;2023-08-12T05:21:40;25.90;1.00
47626;DHT22;33342;45.574;9.252;2023-08-12T05:24:07;25.80;1.00
47626;DHT22;33342;45.574;9.252;2023-08-12T05:26:34;25.90;1.00
47626;DHT22;33342;45.574;9.252;2023-08-12T05:29:01;25.90;1.00
47626;DHT22;33342;45.574;9.252;2023-08-12T05:31:29;25.90;1.00
47626;DHT22;33342;45.574;9.252;2023-08-12T05:33:56;25.90;1.00
47626;DHT22;33342;45.574;9.252;2023-08-12T05:36:23;25.90;1.00
47626;DHT22;33342;45.574;9.252;2023-08-12T05:38:50;25.90;1.00
47626;DHT22;33342;45.574;9.252;2023-08-12T05:41:17;25.90;1.00
47626;DHT22;33342;45.574;9.252;2023-08-12T05:43:44;25.90;1.00
47626;DHT22;33342;45.574;9.252;2023-08-12T05:46:11;26.00;1.00
47626;DHT22;33342;45.574;9.252;2023-08-12T05:48:38;26.00;1.00
47626;DHT22;33342;45.574;9.252;2023-08-12T05:51:05;26.00;1.00
47626;DHT22;33342;45.574;9.252;2023-08-12T05:53:32;26.00;1.00
47626;DHT22;33342;45.574;9.252;2023-08-12T05:55:59;26.00;1.00
47626;DHT22;33342;45.574;9.252;2023-08-12T05:58:27;26.00;1.00
47626;DHT22;33342;45.574;9.252;2023-08-12T06:00:54;26.00;1.00
47626;DHT22;33342;45.574;9.252;2023-08-12T06:03:21;26.00;1.00
47626;DHT22;33342;45.574;9.252;2023-08-12T06:05:48;26.00;1.00
47626;DHT22;33342;45.574;9.252;2023-08-12T06:08:15;26.00;1.00
47626;DHT22;33342;45.574;9.252;2023-08-12T06:10:42;26.00;1.00
47626;DHT22;33342;45.574;9.252;2023-08-12T06:13:09;26.10;1.00
47626;DHT22;33342;45.574;9.252;2023-08-12T06:15:36;26.10;1.00
47626;DHT22;33342;45.574;9.252;2023-08-12T06:18:04;26.10;1.00
47626;DHT22;33342;45.574;9.252;2023-08-12T06:20:31;26.10;1.00
47626;DHT22;33342;45.574;9.252;2023-08-12T06:22:58;26.10;1.00
47626;DHT22;33342;45.574;9.252;2023-08-12T06:25:25;26.20;1.00
47626;DHT22;33342;45.574;9.252;2023-08-12T06:27:52;26.20;1.00
47626;DHT22;33342;45.574;9.252;2023-08-12T06:30:19;26.20;1.00
47626;DHT22;33342;45.574;9.252;2023-08-12T06:32:46;26.30;1.00
47626;DHT22;33342;45.574;9.252;2023-08-12T06:35:13;26.30;1.00
47626;DHT22;33342;45.574;9.252;2023-08-12T06:37:40;26.30;1.00
47626;DHT22;33342;45.574;9.252;2023-08-12T06:40:08;26.40;1.00
47626;DHT22;33342;45.574;9.252;2023-08-12T06:42:35;26.40;1.00
47626;DHT22;33342;45.574;9.252;2023-08-12T06:45:02;26.40;1.00
47626;DHT22;33342;45.574;9.252;2023-08-12T06:47:31;26.40;1.00
47626;DHT22;33342;45.574;9.252;2023-08-12T06:49:58;26.40;1.00
47626;DHT22;33342;45.574;9.252;2023-08-12T06:52:25;26.50;1.00
47626;DHT22;33342;45.574;9.252;2023-08-12T06:54:52;26.50;1.00
47626;DHT22;33342;45.574;9.252;2023-08-12T06:57:19;26.60;1.00
47626;DHT22;33342;45.574;9.252;2023-08-12T06:59:46;26.60;1.00
47626;DHT22;33342;45.574;9.252;2023-08-12T07:02:13;26.60;1.00
47626;DHT22;33342;45.574;9.252;2023-08-12T07:04:40;26.60;1.00
47626;DHT22;33342;45.574;9.252;2023-08-12T07:07:07;26.70;1.00
47626;DHT22;33342;45.574;9.252;2023-08-12T07:09:34;26.70;1.00
47626;DHT22;33342;45.574;9.252;2023-08-12T07:12:01;26.70;1.00
47626;DHT22;33342;45.574;9.252;2023-08-12T07:14:29;26.70;1.00
47626;DHT22;33342;45.574;9.252;2023-08-12T07:16:56;26.70;1.00
47626;DHT22;33342;45.574;9.252;2023-08-12T07:19:23;26.80;1.00
47626;DHT22;33342;45.574;9.252;2023-08-12T07:21:51;26.80;1.00
47626;DHT22;33342;45.574;9.252;2023-08-12T07:24:18;26.80;1.00
47626;DHT22;33342;45.574;9.252;2023-08-12T07:26:45;26.90;1.00
47626;DHT22;33342;45.574;9.252;2023-08-12T07:29:12;26.90;1.00
47626;DHT22;33342;45.574;9.252;2023-08-12T07:31:39;26.90;1.00
47626;DHT22;33342;45.574;9.252;2023-08-12T07:34:06;26.90;1.00
47626;DHT22;33342;45.574;9.252;2023-08-12T07:36:33;26.90;1.00
47626;DHT22;33342;45.574;9.252;2023-08-12T07:39:00;26.90;1.00
47626;DHT22;33342;45.574;9.252;2023-08-12T07:41:27;27.00;1.00
47626;DHT22;33342;45.574;9.252;2023-08-12T07:43:54;27.00;1.00
47626;DHT22;33342;45.574;9.252;2023-08-12T07:46:22;27.00;1.00
47626;DHT22;33342;45.574;9.252;2023-08-12T07:48:49;27.00;1.00
47626;DHT22;33342;45.574;9.252;2023-08-12T07:51:16;27.00;1.00
47626;DHT22;33342;45.574;9.252;2023-08-12T07:53:43;27.10;1.00
47626;DHT22;33342;45.574;9.252;2023-08-12T07:56:10;27.10;1.00
47626;DHT22;33342;45.574;9.252;2023-08-12T07:58:37;27.10;1.00
47626;DHT22;33342;45.574;9.252;2023-08-12T08:01:04;27.10;1.00
47626;DHT22;33342;45.574;9.252;2023-08-12T08:03:31;27.10;1.00
47626;DHT22;33342;45.574;9.252;2023-08-12T08:05:59;27.10;1.00
47626;DHT22;33342;45.574;9.252;2023-08-12T08:08:25;27.10;1.00
47626;DHT22;33342;45.574;9.252;2023-08-12T08:10:53;27.10;1.00
47626;DHT22;33342;45.574;9.252;2023-08-12T08:13:20;27.10;1.00
47626;DHT22;33342;45.574;9.252;2023-08-12T08:15:47;27.10;1.00
47626;DHT22;33342;45.574;9.252;2023-08-12T08:18:14;27.10;1.00
47626;DHT22;33342;45.574;9.252;2023-08-12T08:20:42;27.20;1.00
47626;DHT22;33342;45.574;9.252;2023-08-12T08:23:11;27.20;1.00
47626;DHT22;33342;45.574;9.252;2023-08-12T08:25:38;27.20;1.00
47626;DHT22;33342;45.574;9.252;2023-08-12T08:28:06;27.30;1.00
47626;DHT22;33342;45.574;9.252;2023-08-12T08:30:33;27.30;1.00
47626;DHT22;33342;45.574;9.252;2023-08-12T08:33:00;27.30;1.00
47626;DHT22;33342;45.574;9.252;2023-08-12T08:35:27;27.30;1.00
47626;DHT22;33342;45.574;9.252;2023-08-12T08:37:54;27.30;1.00
47626;DHT22;33342;45.574;9.252;2023-08-12T08:40:21;27.40;1.00
47626;DHT22;33342;45.574;9.252;2023-08-12T08:42:51;27.40;1.00
47626;DHT22;33342;45.574;9.252;2023-08-12T08:45:20;27.40;1.00
47626;DHT22;33342;45.574;9.252;2023-08-12T08:47:48;27.40;1.00
47626;DHT22;33342;45.574;9.252;2023-08-12T08:50:15;27.50;1.00
47626;DHT22;33342;45.574;9.252;2023-08-12T08:52:42;27.40;1.00
47626;DHT22;33342;45.574;9.252;2023-08-12T08:55:10;27.50;1.00
47626;DHT22;33342;45.574;9.252;2023-08-12T08:57:39;27.50;1.00
47626;DHT22;33342;45.574;9.252;2023-08-12T09:00:14;27.50;1.00
47626;DHT22;33342;45.574;9.252;2023-08-12T09:02:51;27.50;1.00
47626;DHT22;33342;45.574;9.252;2023-08-12T09:05:19;27.50;1.00
47626;DHT22;33342;45.574;9.252;2023-08-12T09:07:47;27.60;1.00
47626;DHT22;33342;45.574;9.252;2023-08-12T09:10:15;27.60;1.00
47626;DHT22;33342;45.574;9.252;2023-08-12T09:12:43;27.60;1.00
47626;DHT22;33342;45.574;9.252;2023-08-12T09:15:11;27.60;1.00
47626;DHT22;33342;45.574;9.252;2023-08-12T09:17:38;27.60;1.00
47626;DHT22;33342;45.574;9.252;2023-08-12T09:20:05;27.70;1.00
47626;DHT22;33342;45.574;9.252;2023-08-12T09:22:42;27.60;1.00
47626;DHT22;33342;45.574;9.252;2023-08-12T09:25:09;27.70;1.00
47626;DHT22;33342;45.574;9.252;2023-08-12T09:27:37;27.70;1.00
47626;DHT22;33342;45.574;9.252;2023-08-12T09:30:07;27.80;1.00
47626;DHT22;33342;45.574;9.252;2023-08-12T09:32:35;27.80;1.00
47626;DHT22;33342;45.574;9.252;2023-08-12T09:35:02;27.80;1.00
47626;DHT22;33342;45.574;9.252;2023-08-12T09:37:31;27.90;1.00
47626;DHT22;33342;45.574;9.252;2023-08-12T09:39:58;27.90;1.00
47626;DHT22;33342;45.574;9.252;2023-08-12T09:42:26;27.90;1.00
47626;DHT22;33342;45.574;9.252;2023-08-12T09:44:55;27.90;1.00
47626;DHT22;33342;45.574;9.252;2023-08-12T09:47:24;27.90;1.00
47626;DHT22;33342;45.574;9.252;2023-08-12T09:49:52;27.90;1.00
47626;DHT22;33342;45.574;9.252;2023-08-12T09:52:19;28.00;1.00
47626;DHT22;33342;45.574;9.252;2023-08-12T09:54:46;28.00;1.00
47626;DHT22;33342;45.574;9.252;2023-08-12T09:57:14;28.00;1.00
47626;DHT22;33342;45.574;9.252;2023-08-12T09:59:42;28.00;1.00
47626;DHT22;33342;45.574;9.252;2023-08-12T10:02:09;28.00;1.00
47626;DHT22;33342;45.574;9.252;2023-08-12T10:04:41;28.00;1.00
47626;DHT22;33342;45.574;9.252;2023-08-12T10:07:11;28.00;1.00
47626;DHT22;33342;45.574;9.252;2023-08-12T10:09:41;28.00;1.00
47626;DHT22;33342;45.574;9.252;2023-08-12T10:12:09;28.00;1.00
47626;DHT22;33342;45.574;9.252;2023-08-12T10:14:37;28.10;1.00
47626;DHT22;33342;45.574;9.252;2023-08-12T10:17:05;28.10;1.00
47626;DHT22;33342;45.574;9.252;2023-08-12T10:19:33;28.10;1.00
47626;DHT22;33342;45.574;9.252;2023-08-12T10:22:00;28.10;1.00
47626;DHT22;33342;45.574;9.252;2023-08-12T10:24:29;28.20;1.00
47626;DHT22;33342;45.574;9.252;2023-08-12T10:26:56;28.20;1.00
47626;DHT22;33342;45.574;9.252;2023-08-12T10:29:23;28.20;1.00
47626;DHT22;33342;45.574;9.252;2023-08-12T10:31:53;28.30;1.00
47626;DHT22;33342;45.574;9.252;2023-08-12T10:34:20;28.30;1.00
47626;DHT22;33342;45.574;9.252;2023-08-12T10:36:58;28.40;1.00
47626;DHT22;33342;45.574;9.252;2023-08-12T10:39:32;28.40;1.00
47626;DHT22;33342;45.574;9.252;2023-08-12T10:42:00;28.40;1.00
47626;DHT22;33342;45.574;9.252;2023-08-12T10:44:28;28.50;1.00
47626;DHT22;33342;45.574;9.252;2023-08-12T10:47:08;28.50;1.00
47626;DHT22;33342;45.574;9.252;2023-08-12T10:49:58;28.50;1.00
47626;DHT22;33342;45.574;9.252;2023-08-12T10:52:30;28.60;1.00
47626;DHT22;33342;45.574;9.252;2023-08-12T10:55:16;28.60;1.00
47626;DHT22;33342;45.574;9.252;2023-08-12T10:57:44;28.70;1.00
47626;DHT22;33342;45.574;9.252;2023-08-12T11:00:15;28.70;1.00
47626;DHT22;33342;45.574;9.252;2023-08-12T11:02:45;28.70;1.00
47626;DHT22;33342;45.574;9.252;2023-08-12T11:05:13;28.80;1.00
47626;DHT22;33342;45.574;9.252;2023-08-12T11:07:42;28.80;1.00
47626;DHT22;33342;45.574;9.252;2023-08-12T11:10:10;28.80;1.00
47626;DHT22;33342;45.574;9.252;2023-08-12T11:12:41;28.80;1.00
47626;DHT22;33342;45.574;9.252;2023-08-12T11:15:09;28.80;1.00
47626;DHT22;33342;45.574;9.252;2023-08-12T11:17:37;28.80;1.00
47626;DHT22;33342;45.574;9.252;2023-08-12T11:20:05;28.80;1.00
47626;DHT22;33342;45.574;9.252;2023-08-12T11:22:35;28.80;1.00
47626;DHT22;33342;45.574;9.252;2023-08-12T11:25:04;28.80;99.90
47626;DHT22;33342;45.574;9.252;2023-08-12T11:27:50;28.80;99.90
47626;DHT22;33342;45.574;9.252;2023-08-12T11:30:18;28.80;99.90
47626;DHT22;33342;45.574;9.252;2023-08-12T11:32:49;28.80;99.90
47626;DHT22;33342;45.574;9.252;2023-08-12T11:35:17;28.80;99.90
47626;DHT22;33342;45.574;9.252;2023-08-12T11:37:45;28.80;99.90
47626;DHT22;33342;45.574;9.252;2023-08-12T11:40:13;28.90;99.90
47626;DHT22;33342;45.574;9.252;2023-08-12T11:42:44;28.90;99.90
47626;DHT22;33342;45.574;9.252;2023-08-12T11:45:13;28.90;99.90
47626;DHT22;33342;45.574;9.252;2023-08-12T11:47:40;28.90;99.90
47626;DHT22;33342;45.574;9.252;2023-08-12T11:50:08;28.90;99.90
47626;DHT22;33342;45.574;9.252;2023-08-12T11:52:36;28.90;99.90
47626;DHT22;33342;45.574;9.252;2023-08-12T11:55:04;28.90;99.90
47626;DHT22;33342;45.574;9.252;2023-08-12T11:57:32;29.00;99.90
47626;DHT22;33342;45.574;9.252;2023-08-12T12:00:02;29.00;99.90
47626;DHT22;33342;45.574;9.252;2023-08-12T12:02:38;29.00;99.90
47626;DHT22;33342;45.574;9.252;2023-08-12T12:05:10;29.00;99.90
47626;DHT22;33342;45.574;9.252;2023-08-12T12:07:37;29.00;99.90
47626;DHT22;33342;45.574;9.252;2023-08-12T12:10:08;29.10;99.90
47626;DHT22;33342;45.574;9.252;2023-08-12T12:12:35;29.10;99.90
47626;DHT22;33342;45.574;9.252;2023-08-12T12:15:03;29.10;99.90
47626;DHT22;33342;45.574;9.252;2023-08-12T12:17:30;29.10;99.90
47626;DHT22;33342;45.574;9.252;2023-08-12T12:19:58;29.10;99.90
47626;DHT22;33342;45.574;9.252;2023-08-12T12:22:31;29.20;99.90
47626;DHT22;33342;45.574;9.252;2023-08-12T12:25:09;29.20;99.90
47626;DHT22;33342;45.574;9.252;2023-08-12T12:27:37;29.30;99.90
47626;DHT22;33342;45.574;9.252;2023-08-12T12:30:04;29.30;99.90
47626;DHT22;33342;45.574;9.252;2023-08-12T12:32:31;29.30;99.90
47626;DHT22;33342;45.574;9.252;2023-08-12T12:34:58;29.30;99.90
47626;DHT22;33342;45.574;9.252;2023-08-12T12:37:25;29.30;99.90
47626;DHT22;33342;45.574;9.252;2023-08-12T12:39:52;29.40;99.90
47626;DHT22;33342;45.574;9.252;2023-08-12T12:42:20;29.40;99.90
47626;DHT22;33342;45.574;9.252;2023-08-12T12:44:47;29.40;99.90
47626;DHT22;33342;45.574;9.252;2023-08-12T12:47:14;29.40;99.90
47626;DHT22;33342;45.574;9.252;2023-08-12T12:49:41;29.50;99.90
47626;DHT22;33342;45.574;9.252;2023-08-12T12:52:10;29.50;99.90
47626;DHT22;33342;45.574;9.252;2023-08-12T12:54:38;29.50;99.90
47626;DHT22;33342;45.574;9.252;2023-08-12T12:57:05;29.60;99.90
47626;DHT22;33342;45.574;9.252;2023-08-12T12:59:32;29.60;99.90
47626;DHT22;33342;45.574;9.252;2023-08-12T13:01:59;29.70;99.90
47626;DHT22;33342;45.574;9.252;2023-08-12T13:04:26;29.70;99.90
47626;DHT22;33342;45.574;9.252;2023-08-12T13:06:53;29.80;99.90
47626;DHT22;33342;45.574;9.252;2023-08-12T13:09:20;29.80;99.90
47626;DHT22;33342;45.574;9.252;2023-08-12T13:11:47;29.80;99.90
47626;DHT22;33342;45.574;9.252;2023-08-12T13:14:14;29.90;99.90
47626;DHT22;33342;45.574;9.252;2023-08-12T13:16:43;29.90;99.90
47626;DHT22;33342;45.574;9.252;2023-08-12T13:19:10;30.00;99.90
47626;DHT22;33342;45.574;9.252;2023-08-12T13:21:37;30.00;99.90
47626;DHT22;33342;45.574;9.252;2023-08-12T13:24:04;30.00;99.90
47626;DHT22;33342;45.574;9.252;2023-08-12T13:26:31;30.10;99.90
47626;DHT22;33342;45.574;9.252;2023-08-12T13:28:58;30.10;99.90
47626;DHT22;33342;45.574;9.252;2023-08-12T13:31:25;30.30;99.90
47626;DHT22;33342;45.574;9.252;2023-08-12T13:33:52;30.30;99.90
47626;DHT22;33342;45.574;9.252;2023-08-12T13:36:19;30.40;99.90
47626;DHT22;33342;45.574;9.252;2023-08-12T13:38:46;30.50;99.90
47626;DHT22;33342;45.574;9.252;2023-08-12T13:41:13;30.60;99.90
47626;DHT22;33342;45.574;9.252;2023-08-12T13:43:40;30.60;99.90
47626;DHT22;33342;45.574;9.252;2023-08-12T13:46:07;30.70;99.90
47626;DHT22;33342;45.574;9.252;2023-08-12T13:48:35;30.80;99.90
47626;DHT22;33342;45.574;9.252;2023-08-12T13:51:02;30.80;99.90
47626;DHT22;33342;45.574;9.252;2023-08-12T13:53:30;30.80;99.90
47626;DHT22;33342;45.574;9.252;2023-08-12T13:55:57;30.80;99.90
47626;DHT22;33342;45.574;9.252;2023-08-12T13:58:24;30.90;99.90
47626;DHT22;33342;45.574;9.252;2023-08-12T14:00:51;30.90;99.90
47626;DHT22;33342;45.574;9.252;2023-08-12T14:03:18;30.90;99.90
47626;DHT22;33342;45.574;9.252;2023-08-12T14:05:45;31.00;99.90
47626;DHT22;33342;45.574;9.252;2023-08-12T14:08:12;31.00;99.90
47626;DHT22;33342;45.574;9.252;2023-08-12T14:10:39;31.10;99.90
47626;DHT22;33342;45.574;9.252;2023-08-12T14:13:07;31.20;99.90
47626;DHT22;33342;45.574;9.252;2023-08-12T14:15:34;31.30;99.90
47626;DHT22;33342;45.574;9.252;2023-08-12T14:18:01;31.40;99.90
47626;DHT22;33342;45.574;9.252;2023-08-12T14:20:29;31.50;99.90
47626;DHT22;33342;45.574;9.252;2023-08-12T14:22:56;31.50;99.90
47626;DHT22;33342;45.574;9.252;2023-08-12T14:25:23;31.60;99.90
47626;DHT22;33342;45.574;9.252;2023-08-12T14:27:50;31.80;99.90
47626;DHT22;33342;45.574;9.252;2023-08-12T14:30:18;31.80;99.90
47626;DHT22;33342;45.574;9.252;2023-08-12T14:32:45;31.90;99.90
47626;DHT22;33342;45.574;9.252;2023-08-12T14:35:14;32.00;99.90
47626;DHT22;33342;45.574;9.252;2023-08-12T14:37:41;32.10;99.90
47626;DHT22;33342;45.574;9.252;2023-08-12T14:40:08;32.20;99.90
47626;DHT22;33342;45.574;9.252;2023-08-12T14:42:36;32.30;99.90
47626;DHT22;33342;45.574;9.252;2023-08-12T14:45:04;32.40;99.90
47626;DHT22;33342;45.574;9.252;2023-08-12T14:47:31;32.60;99.90
47626;DHT22;33342;45.574;9.252;2023-08-12T14:49:58;32.70;99.90
47626;DHT22;33342;45.574;9.252;2023-08-12T14:52:25;32.70;99.90
47626;DHT22;33342;45.574;9.252;2023-08-12T14:54:52;32.90;99.90
47626;DHT22;33342;45.574;9.252;2023-08-12T14:57:19;33.00;99.90
47626;DHT22;33342;45.574;9.252;2023-08-12T14:59:46;33.20;99.90
47626;DHT22;33342;45.574;9.252;2023-08-12T15:02:19;33.20;99.90
47626;DHT22;33342;45.574;9.252;2023-08-12T15:04:46;33.40;99.90
47626;DHT22;33342;45.574;9.252;2023-08-12T15:07:13;33.50;99.90
47626;DHT22;33342;45.574;9.252;2023-08-12T15:09:41;33.70;99.90
47626;DHT22;33342;45.574;9.252;2023-08-12T15:12:08;33.80;99.90
47626;DHT22;33342;45.574;9.252;2023-08-12T15:14:35;34.00;99.90
47626;DHT22;33342;45.574;9.252;2023-08-12T15:17:02;34.20;99.90
47626;DHT22;33342;45.574;9.252;2023-08-12T15:19:29;34.30;99.90
47626;DHT22;33342;45.574;9.252;2023-08-12T15:21:57;34.40;99.90
47626;DHT22;33342;45.574;9.252;2023-08-12T15:24:24;34.50;99.90
47626;DHT22;33342;45.574;9.252;2023-08-12T15:26:51;34.60;99.90
47626;DHT22;33342;45.574;9.252;2023-08-12T15:29:18;34.60;99.90
47626;DHT22;33342;45.574;9.252;2023-08-12T15:31:45;34.80;99.90
47626;DHT22;33342;45.574;9.252;2023-08-12T15:34:12;34.80;99.90
47626;DHT22;33342;45.574;9.252;2023-08-12T15:36:39;35.00;99.90
47626;DHT22;33342;45.574;9.252;2023-08-12T15:39:07;35.20;99.90
47626;DHT22;33342;45.574;9.252;2023-08-12T15:41:35;35.30;99.90
47626;DHT22;33342;45.574;9.252;2023-08-12T15:44:06;35.50;99.90
47626;DHT22;33342;45.574;9.252;2023-08-12T15:46:33;35.80;99.90
47626;DHT22;33342;45.574;9.252;2023-08-12T15:49:00;35.90;99.90
47626;DHT22;33342;45.574;9.252;2023-08-12T15:51:27;35.90;99.90